Judi M. — WCX8376 — position and weather

sailwx.info

Track history (hours):
 
Tides and Currents Weather Stations Pressure Air Temp Water Temp Dewpoint Dewpoint Depression Visibility Wind Speed Wind Dir Waves Ship Positions

Judi M.

Owner: MANKE TUG & BARGE CO INC, SHELTON, WA. More information available from US FCC via Universal Licensing System and Coast Guard Vessel Documentation Center.

Last reported at 2015-May-02 05:39 UTC. Time now 2015-May-03 14:53 UTC.
Position N 47°34' W 122°22'.

Length 29 m; draft 4 m.

Type: Tow > 200 m length. MMSI: 366740920.

Date/timePositionNaut miles runAvg speedWind from/ knotsBaromVisibWave heightAir tempDewpointWater temp
2015-May-02 05:39N 47°34' W 122°22'0 0.0
2015-May-02 05:28N 47°34' W 122°22'0 0.1
2015-May-02 04:33N 47°34' W 122°22'0 2.4
2015-May-02 04:28N 47°35' W 122°22'4 4.4
2015-May-02 03:33N 47°37' W 122°26'0 4.3
2015-May-02 03:32N 47°38' W 122°26'6 6.1
2015-May-02 02:33N 47°43' W 122°28'5 6.8
2015-May-02 01:45N 47°49' W 122°28'1 7.2
2015-May-02 01:33N 47°50' W 122°29'0 6.6
2015-May-02 01:30N 47°51' W 122°29'6 6.5
2015-May-02 00:33N 47°56' W 122°33'7 7.2
2015-May-01 23:32N 48°02' W 122°39'5 5.2
2015-May-01 22:32N 48°06' W 122°44'2 0.5
2015-May-01 17:23N 48°06' W 122°48'5 0.9
2015-May-01 11:27N 48°07' W 122°40'7 7.5
2015-May-01 10:33N 48°01' W 122°37'3 7.5
2015-May-01 10:10N 47°58' W 122°35'5 7.9
2015-May-01 09:33N 47°55' W 122°29'0 7.7
2015-May-01 09:30N 47°55' W 122°29'8 8.2
2015-May-01 08:33N 47°47' W 122°26'0 8.4
2015-May-01 08:31N 47°47' W 122°26'8 8.2
2015-May-01 07:33N 47°39' W 122°27'0 7.9
2015-May-01 07:30N 47°39' W 122°27'6 6.0
2015-May-01 06:33N 47°34' W 122°22'0 0.1
2015-May-01 06:30N 47°34' W 122°22'  
2015-Apr-29 02:07N 47°34' W 122°22'0 0.0
2015-Apr-29 02:06N 47°34' W 122°22'1 2.2
2015-Apr-29 01:33N 47°36' W 122°22'0 3.8
2015-Apr-29 01:30N 47°36' W 122°22'6 5.8
2015-Apr-29 00:33N 47°39' W 122°28'0 6.7
2015-Apr-29 00:30N 47°40' W 122°28'6 6.9
2015-Apr-28 23:33N 47°46' W 122°27'0 6.9
2015-Apr-28 23:30N 47°46' W 122°27'7 7.0
2015-Apr-28 22:33N 47°53' W 122°30'1 7.0
2015-Apr-28 22:29N 47°53' W 122°30'6 6.8
2015-Apr-28 21:33N 47°58' W 122°36'7 7.4
2015-Apr-28 20:33N 48°05' W 122°40'9 8.2
2015-Apr-28 19:30N 48°12' W 122°47'8 7.7
2015-Apr-28 18:29N 48°20' W 122°47'7 7.1
2015-Apr-28 17:33N 48°27' W 122°45'8 8.2
2015-Apr-28 16:33N 48°35' W 122°45'8 8.0
2015-Apr-28 15:33N 48°43' W 122°45'7 7.5
2015-Apr-28 14:33N 48°47' W 122°54'8 7.8
2015-Apr-28 13:33N 48°52' W 123°04'8 7.9
2015-Apr-28 12:33N 48°57' W 123°13'7 7.5
2015-Apr-28 11:33N 49°02' W 123°22'7 7.2
2015-Apr-28 10:33N 49°09' W 123°26'7 7.5
2015-Apr-28 09:33N 49°16' W 123°27'8 7.6
2015-Apr-28 08:32N 49°24' W 123°25'6 6.4
2015-Apr-28 07:33N 49°30' W 123°28'2 1.4
2015-Apr-28 06:22N 49°31' W 123°29'0 0.0
2015-Apr-28 04:33N 49°31' W 123°29'0 0.0
2015-Apr-28 03:16N 49°31' W 123°29'0 0.0
2015-Apr-27 23:30N 49°31' W 123°29'0 0.0
2015-Apr-27 22:28N 49°31' W 123°29'0 0.0
2015-Apr-27 21:33N 49°31' W 123°29'0 0.0
2015-Apr-27 20:14N 49°31' W 123°29'0 0.0
2015-Apr-27 18:32N 49°31' W 123°29'0 0.0
2015-Apr-27 17:32N 49°31' W 123°29'0 0.0
2015-Apr-27 15:28N 49°31' W 123°29'0 0.3
2015-Apr-27 14:19N 49°31' W 123°29'3 4.5
2015-Apr-27 13:33N 49°27' W 123°28'6 5.8
2015-Apr-27 12:33N 49°22' W 123°26'6 6.0
2015-Apr-27 11:33N 49°16' W 123°26'6 6.0
2015-Apr-27 10:33N 49°10' W 123°25'6 6.0
2015-Apr-27 09:33N 49°04' W 123°21'6 6.0
2015-Apr-27 08:33N 49°00' W 123°14'6 6.2
2015-Apr-27 07:33N 48°56' W 123°07'7 6.9
2015-Apr-27 06:33N 48°52' W 122°59'8 7.8
2015-Apr-27 05:33N 48°47' W 122°50'8 7.6
2015-Apr-27 04:33N 48°41' W 122°43'8 7.7
2015-Apr-27 03:33N 48°34' W 122°45'9 8.7
2015-Apr-27 02:32N 48°25' W 122°44'10 7.9
2015-Apr-27 01:19N 48°15' W 122°47'7 8.4
2015-Apr-27 00:30N 48°09' W 122°43'1010.1
2015-Apr-26 23:33N 48°01' W 122°36'310.5
2015-Apr-26 23:16N 47°58' W 122°34'7 9.3
2015-Apr-26 22:33N 47°53' W 122°28'0 9.2
2015-Apr-26 22:31N 47°52' W 122°28'9 9.3
2015-Apr-26 21:33N 47°44' W 122°26'0 9.0
2015-Apr-26 21:31N 47°43' W 122°26'8 7.9
2015-Apr-26 20:33N 47°36' W 122°22'0 7.2
2015-Apr-26 20:30N 47°36' W 122°22'  
2015-Apr-24 05:33N 47°34' W 122°22'4 3.6
2015-Apr-24 04:33N 47°37' W 122°25'6 5.8
2015-Apr-24 03:33N 47°43' W 122°28'6 6.2
2015-Apr-24 02:33N 47°49' W 122°28'7 6.8
2015-Apr-24 01:33N 47°55' W 122°31'8 8.4
2015-Apr-24 00:33N 48°02' W 122°39'4 0.3
2015-Apr-23 10:26N 48°06' W 122°39'8 9.4
2015-Apr-23 09:33N 47°59' W 122°35'9 8.6
2015-Apr-23 08:33N 47°51' W 122°27'8 8.5
2015-Apr-23 07:33N 47°43' W 122°26'8 7.8
2015-Apr-23 06:33N 47°36' W 122°22'  
Track history (hours):
 
Tides and Currents Weather Stations Pressure Air Temp Water Temp Dewpoint Dewpoint Depression Visibility Wind Speed Wind Dir Waves Ship Positions

Judi M.

Owner: MANKE TUG & BARGE CO INC, SHELTON, WA. More information available from US FCC via Universal Licensing System and Coast Guard Vessel Documentation Center.

Last reported at 2015-May-02 05:39 UTC. Time now 2015-May-03 14:53 UTC.
Position N 47°34' W 122°22'.

Length 29 m; draft 4 m.

Type: Tow > 200 m length. MMSI: 366740920.

Date/timePositionNaut miles runAvg speedWind from/ knotsBaromVisibWave heightAir tempDewpointWater temp
2015-May-02 05:39N 47°34' W 122°22'0 0.0
2015-May-02 05:28N 47°34' W 122°22'0 0.1
2015-May-02 04:33N 47°34' W 122°22'0 2.4
2015-May-02 04:28N 47°35' W 122°22'4 4.4
2015-May-02 03:33N 47°37' W 122°26'0 4.3
2015-May-02 03:32N 47°38' W 122°26'6 6.1
2015-May-02 02:33N 47°43' W 122°28'5 6.8
2015-May-02 01:45N 47°49' W 122°28'1 7.2
2015-May-02 01:33N 47°50' W 122°29'0 6.6
2015-May-02 01:30N 47°51' W 122°29'6 6.5
2015-May-02 00:33N 47°56' W 122°33'7 7.2
2015-May-01 23:32N 48°02' W 122°39'5 5.2
2015-May-01 22:32N 48°06' W 122°44'2 0.5
2015-May-01 17:23N 48°06' W 122°48'5 0.9
2015-May-01 11:27N 48°07' W 122°40'7 7.5
2015-May-01 10:33N 48°01' W 122°37'3 7.5
2015-May-01 10:10N 47°58' W 122°35'5 7.9
2015-May-01 09:33N 47°55' W 122°29'0 7.7
2015-May-01 09:30N 47°55' W 122°29'8 8.2
2015-May-01 08:33N 47°47' W 122°26'0 8.4
2015-May-01 08:31N 47°47' W 122°26'8 8.2
2015-May-01 07:33N 47°39' W 122°27'0 7.9
2015-May-01 07:30N 47°39' W 122°27'6 6.0
2015-May-01 06:33N 47°34' W 122°22'0 0.1
2015-May-01 06:30N 47°34' W 122°22'  
2015-Apr-29 02:07N 47°34' W 122°22'0 0.0
2015-Apr-29 02:06N 47°34' W 122°22'1 2.2
2015-Apr-29 01:33N 47°36' W 122°22'0 3.8
2015-Apr-29 01:30N 47°36' W 122°22'6 5.8
2015-Apr-29 00:33N 47°39' W 122°28'0 6.7
2015-Apr-29 00:30N 47°40' W 122°28'6 6.9
2015-Apr-28 23:33N 47°46' W 122°27'0 6.9
2015-Apr-28 23:30N 47°46' W 122°27'7 7.0
2015-Apr-28 22:33N 47°53' W 122°30'1 7.0
2015-Apr-28 22:29N 47°53' W 122°30'6 6.8
2015-Apr-28 21:33N 47°58' W 122°36'7 7.4
2015-Apr-28 20:33N 48°05' W 122°40'9 8.2
2015-Apr-28 19:30N 48°12' W 122°47'8 7.7
2015-Apr-28 18:29N 48°20' W 122°47'7 7.1
2015-Apr-28 17:33N 48°27' W 122°45'8 8.2
2015-Apr-28 16:33N 48°35' W 122°45'8 8.0
2015-Apr-28 15:33N 48°43' W 122°45'7 7.5
2015-Apr-28 14:33N 48°47' W 122°54'8 7.8
2015-Apr-28 13:33N 48°52' W 123°04'8 7.9
2015-Apr-28 12:33N 48°57' W 123°13'7 7.5
2015-Apr-28 11:33N 49°02' W 123°22'7 7.2
2015-Apr-28 10:33N 49°09' W 123°26'7 7.5
2015-Apr-28 09:33N 49°16' W 123°27'8 7.6
2015-Apr-28 08:32N 49°24' W 123°25'6 6.4
2015-Apr-28 07:33N 49°30' W 123°28'2 1.4
2015-Apr-28 06:22N 49°31' W 123°29'0 0.0
2015-Apr-28 04:33N 49°31' W 123°29'0 0.0
2015-Apr-28 03:16N 49°31' W 123°29'0 0.0
2015-Apr-27 23:30N 49°31' W 123°29'0 0.0
2015-Apr-27 22:28N 49°31' W 123°29'0 0.0
2015-Apr-27 21:33N 49°31' W 123°29'0 0.0
2015-Apr-27 20:14N 49°31' W 123°29'0 0.0
2015-Apr-27 18:32N 49°31' W 123°29'0 0.0
2015-Apr-27 17:32N 49°31' W 123°29'0 0.0
2015-Apr-27 15:28N 49°31' W 123°29'0 0.3
2015-Apr-27 14:19N 49°31' W 123°29'3 4.5
2015-Apr-27 13:33N 49°27' W 123°28'6 5.8
2015-Apr-27 12:33N 49°22' W 123°26'6 6.0
2015-Apr-27 11:33N 49°16' W 123°26'6 6.0
2015-Apr-27 10:33N 49°10' W 123°25'6 6.0
2015-Apr-27 09:33N 49°04' W 123°21'6 6.0
2015-Apr-27 08:33N 49°00' W 123°14'6 6.2
2015-Apr-27 07:33N 48°56' W 123°07'7 6.9
2015-Apr-27 06:33N 48°52' W 122°59'8 7.8
2015-Apr-27 05:33N 48°47' W 122°50'8 7.6
2015-Apr-27 04:33N 48°41' W 122°43'8 7.7
2015-Apr-27 03:33N 48°34' W 122°45'9 8.7
2015-Apr-27 02:32N 48°25' W 122°44'10 7.9
2015-Apr-27 01:19N 48°15' W 122°47'7 8.4
2015-Apr-27 00:30N 48°09' W 122°43'1010.1
2015-Apr-26 23:33N 48°01' W 122°36'310.5
2015-Apr-26 23:16N 47°58' W 122°34'7 9.3
2015-Apr-26 22:33N 47°53' W 122°28'0 9.2
2015-Apr-26 22:31N 47°52' W 122°28'9 9.3
2015-Apr-26 21:33N 47°44' W 122°26'0 9.0
2015-Apr-26 21:31N 47°43' W 122°26'8 7.9
2015-Apr-26 20:33N 47°36' W 122°22'0 7.2
2015-Apr-26 20:30N 47°36' W 122°22'  
2015-Apr-24 05:33N 47°34' W 122°22'4 3.6
2015-Apr-24 04:33N 47°37' W 122°25'6 5.8
2015-Apr-24 03:33N 47°43' W 122°28'6 6.2
2015-Apr-24 02:33N 47°49' W 122°28'7 6.8
2015-Apr-24 01:33N 47°55' W 122°31'8 8.4
2015-Apr-24 00:33N 48°02' W 122°39'4 0.3
2015-Apr-23 10:26N 48°06' W 122°39'8 9.4
2015-Apr-23 09:33N 47°59' W 122°35'9 8.6
2015-Apr-23 08:33N 47°51' W 122°27'8 8.5
2015-Apr-23 07:33N 47°43' W 122°26'8 7.8
2015-Apr-23 06:33N 47°36' W 122°22'  

Dump ship's entire track history